createdAt,value
2019-03-22T00:01:13.100Z,20.47
2019-03-22T00:03:44.029Z,20.77
2019-03-22T00:06:14.789Z,20.97
2019-03-22T00:08:45.601Z,19.73
2019-03-22T00:11:16.469Z,19.93
2019-03-22T00:13:47.565Z,21.80
2019-03-22T00:16:18.319Z,21.97
2019-03-22T00:18:49.091Z,22.60
2019-03-22T00:21:19.892Z,23.20
2019-03-22T00:23:50.771Z,23.80
2019-03-22T00:26:21.562Z,21.10
2019-03-22T00:28:52.519Z,22.13
2019-03-22T00:31:23.393Z,20.67
2019-03-22T00:33:54.343Z,20.47
2019-03-22T00:36:25.110Z,19.30
2019-03-22T00:38:55.927Z,19.93
2019-03-22T00:41:26.641Z,19.37
2019-03-22T00:43:57.508Z,22.10
2019-03-22T00:46:28.266Z,20.13
2019-03-22T00:48:59.050Z,19.93
2019-03-22T00:51:29.898Z,20.00
2019-03-22T00:54:00.796Z,19.30
2019-03-22T00:56:31.734Z,19.90
2019-03-22T00:59:02.679Z,18.33
2019-03-22T01:01:33.484Z,19.83
2019-03-22T01:04:04.295Z,21.00
2019-03-22T01:06:35.098Z,20.57
2019-03-22T01:09:07.191Z,21.37
2019-03-22T01:11:38.023Z,21.00
2019-03-22T01:14:08.864Z,23.73
2019-03-22T01:16:39.658Z,22.93
2019-03-22T01:19:10.437Z,20.90
2019-03-22T01:21:41.199Z,21.40
2019-03-22T01:24:12.070Z,23.53
2019-03-22T01:26:43.942Z,24.53
2019-03-22T01:29:14.748Z,24.70
2019-03-22T01:31:45.484Z,23.30
2019-03-22T01:34:16.369Z,22.13
2019-03-22T01:36:47.126Z,23.17
2019-03-22T01:39:18.126Z,24.03
2019-03-22T01:41:48.866Z,21.83
2019-03-22T01:44:19.847Z,24.53
2019-03-22T01:46:50.654Z,23.77
2019-03-22T01:49:21.406Z,21.77
2019-03-22T01:51:52.146Z,23.80
2019-03-22T01:54:23.036Z,24.13
2019-03-22T01:56:54.318Z,23.87
2019-03-22T01:59:25.138Z,22.80
2019-03-22T02:01:55.956Z,23.30
2019-03-22T02:04:26.878Z,22.90
2019-03-22T02:06:57.656Z,21.13
2019-03-22T02:09:28.518Z,21.60
2019-03-22T02:11:59.298Z,21.67
2019-03-22T02:14:30.168Z,21.77
2019-03-22T02:17:00.936Z,22.87
2019-03-22T02:19:31.779Z,21.60
2019-03-22T02:22:02.586Z,24.63
2019-03-22T02:24:33.448Z,23.00
2019-03-22T02:27:04.359Z,20.97
2019-03-22T02:29:35.167Z,20.50
2019-03-22T02:32:05.984Z,20.17
2019-03-22T02:34:36.844Z,19.57
2019-03-22T02:37:07.609Z,19.43
2019-03-22T02:39:38.510Z,21.07
2019-03-22T02:42:09.320Z,21.77
2019-03-22T02:44:40.392Z,21.07
2019-03-22T02:47:12.249Z,23.93
2019-03-22T02:49:43.044Z,24.77
2019-03-22T02:52:13.795Z,24.63
2019-03-22T02:54:44.645Z,23.47
2019-03-22T02:57:15.818Z,23.63
2019-03-22T02:59:47.721Z,25.50
2019-03-22T03:02:18.473Z,23.60
2019-03-22T03:04:49.329Z,24.87
2019-03-22T03:07:20.081Z,23.63
2019-03-22T03:09:50.893Z,24.10
2019-03-22T03:12:21.630Z,23.43
2019-03-22T03:14:52.520Z,25.83
2019-03-22T03:17:23.293Z,24.53
2019-03-22T03:19:54.050Z,24.07
2019-03-22T03:22:24.849Z,22.43
2019-03-22T03:24:55.743Z,23.60
2019-03-22T03:27:26.562Z,23.90
2019-03-22T03:29:57.535Z,25.17
2019-03-22T03:32:28.383Z,24.57
2019-03-22T03:34:59.199Z,24.50
2019-03-22T03:37:29.958Z,25.23
2019-03-22T03:40:00.751Z,24.43
2019-03-22T03:42:31.892Z,29.00
2019-03-22T03:45:02.810Z,28.40
2019-03-22T03:47:33.661Z,28.53
2019-03-22T03:50:06.453Z,26.77
2019-03-22T03:52:39.465Z,22.83
2019-03-22T03:55:09.821Z,25.00
2019-03-22T03:57:40.766Z,24.60
2019-03-22T04:00:12.054Z,23.53
2019-03-22T04:02:42.841Z,22.57
2019-03-22T04:05:14.754Z,27.47
2019-03-22T04:07:45.664Z,27.97
2019-03-22T04:10:16.508Z,25.83
2019-03-22T04:12:47.292Z,24.03
2019-03-22T04:15:18.484Z,24.00
2019-03-22T04:17:49.384Z,23.60
2019-03-22T04:20:20.167Z,26.23
2019-03-22T04:22:51.052Z,29.07
2019-03-22T04:25:22.055Z,26.87
2019-03-22T04:27:52.812Z,26.03
2019-03-22T04:30:23.697Z,24.70
2019-03-22T04:32:54.461Z,24.50
2019-03-22T04:35:25.309Z,24.57
2019-03-22T04:37:56.064Z,25.63
2019-03-22T04:40:28.074Z,26.20
2019-03-22T04:42:58.882Z,25.17
2019-03-22T04:45:33.749Z,24.33
2019-03-22T04:48:19.348Z,24.70
2019-03-22T04:50:52.723Z,26.10
2019-03-22T04:53:26.444Z,25.90
2019-03-22T04:56:02.279Z,23.57
2019-03-22T04:58:34.431Z,25.13
2019-03-22T05:01:05.343Z,26.53
2019-03-22T05:03:37.127Z,25.23
2019-03-22T05:06:10.011Z,24.33
2019-03-22T05:08:43.178Z,26.77
2019-03-22T05:11:16.514Z,25.97
2019-03-22T05:13:50.390Z,25.13
2019-03-22T05:16:23.691Z,25.27
2019-03-22T05:18:56.502Z,26.57
2019-03-22T05:21:30.755Z,26.57
2019-03-22T05:24:04.605Z,25.67
2019-03-22T05:26:38.095Z,25.20
2019-03-22T05:29:11.914Z,25.00
2019-03-22T05:32:00.084Z,24.83
2019-03-22T05:34:30.808Z,26.33
2019-03-22T05:37:01.631Z,27.07
2019-03-22T05:39:33.419Z,31.03
2019-03-22T05:42:04.436Z,31.17
2019-03-22T05:44:35.371Z,29.83
2019-03-22T05:47:07.417Z,24.97
2019-03-22T05:49:38.218Z,26.47
2019-03-22T05:52:09.135Z,25.23
2019-03-22T05:54:39.943Z,25.40
2019-03-22T05:57:13.641Z,26.70
2019-03-22T05:59:43.472Z,26.20
2019-03-22T06:02:14.280Z,23.53
2019-03-22T06:04:45.095Z,23.57
2019-03-22T06:07:15.938Z,22.60
2019-03-22T06:09:46.853Z,24.17
2019-03-22T06:12:18.746Z,24.93
2019-03-22T06:14:49.728Z,23.10
2019-03-22T06:17:21.040Z,24.53
2019-03-22T06:19:51.821Z,24.20
2019-03-22T06:22:22.724Z,24.90
2019-03-22T06:24:53.490Z,24.87
2019-03-22T06:27:24.286Z,24.20
2019-03-22T06:29:55.059Z,24.93
2019-03-22T06:32:25.943Z,24.93
2019-03-22T06:34:56.733Z,24.50
2019-03-22T06:37:28.544Z,25.03
2019-03-22T06:39:59.289Z,23.17
2019-03-22T06:42:30.140Z,24.57
2019-03-22T06:45:00.981Z,25.20
2019-03-22T06:47:31.753Z,23.97
2019-03-22T06:50:02.512Z,22.67
2019-03-22T06:52:33.397Z,23.37
2019-03-22T06:55:04.156Z,23.43
2019-03-22T06:57:34.976Z,24.10
2019-03-22T07:00:07.679Z,23.00
2019-03-22T07:02:38.554Z,23.07
2019-03-22T07:05:09.509Z,22.73
2019-03-22T07:07:40.465Z,23.03
2019-03-22T07:10:12.337Z,21.30
2019-03-22T07:12:43.153Z,23.77
2019-03-22T07:15:15.030Z,22.37
2019-03-22T07:17:45.913Z,23.00
2019-03-22T07:20:16.758Z,22.77
2019-03-22T07:22:47.622Z,22.23
2019-03-22T07:25:18.457Z,23.47
2019-03-22T07:27:49.376Z,22.40
2019-03-22T07:30:20.253Z,22.47
2019-03-22T07:32:51.284Z,22.57
2019-03-22T07:35:22.063Z,23.27
2019-03-22T07:37:52.892Z,24.17
2019-03-22T07:40:23.671Z,23.23
2019-03-22T07:42:54.510Z,23.73
2019-03-22T07:45:25.271Z,22.67
2019-03-22T07:47:56.148Z,23.13
2019-03-22T07:50:26.890Z,22.70
2019-03-22T07:52:57.732Z,22.80
2019-03-22T07:55:28.522Z,22.47
2019-03-22T07:57:59.297Z,23.40
2019-03-22T08:00:31.295Z,22.53
2019-03-22T08:03:02.611Z,23.07
2019-03-22T08:05:33.402Z,21.77
2019-03-22T08:08:04.382Z,22.37
2019-03-22T08:10:36.621Z,23.47
2019-03-22T08:13:07.459Z,23.13
2019-03-22T08:15:38.296Z,23.93
2019-03-22T08:18:09.283Z,25.00
2019-03-22T08:20:41.446Z,24.90
2019-03-22T08:23:25.152Z,25.53
2019-03-22T08:25:57.009Z,24.23
2019-03-22T08:28:27.761Z,25.50
2019-03-22T08:30:58.591Z,26.20
2019-03-22T08:33:29.633Z,24.77
2019-03-22T08:36:00.571Z,27.77
2019-03-22T08:38:31.390Z,26.47
2019-03-22T08:41:02.188Z,28.70
2019-03-22T08:43:33.053Z,27.17
2019-03-22T08:46:03.810Z,27.00
2019-03-22T08:48:34.764Z,28.77
2019-03-22T08:51:05.661Z,28.07
2019-03-22T08:53:36.522Z,28.23
2019-03-22T08:56:08.596Z,30.17
2019-03-22T08:58:39.562Z,29.27
2019-03-22T09:01:10.523Z,29.57
2019-03-22T09:03:41.565Z,30.40
2019-03-22T09:06:14.817Z,30.10
2019-03-22T09:08:47.888Z,29.73
2019-03-22T09:11:18.346Z,28.97
2019-03-22T09:13:49.426Z,29.33
2019-03-22T09:16:20.171Z,29.60
2019-03-22T09:18:51.093Z,32.10
2019-03-22T09:21:22.036Z,32.60
2019-03-22T09:23:53.915Z,32.20
2019-03-22T09:26:24.763Z,33.17
2019-03-22T09:28:55.675Z,28.90
2019-03-22T09:31:26.441Z,31.37
2019-03-22T09:33:58.839Z,33.17
2019-03-22T09:36:30.500Z,33.40
2019-03-22T09:39:03.115Z,35.77
2019-03-22T09:41:36.111Z,36.03
2019-03-22T09:44:07.641Z,34.33
2019-03-22T09:46:38.447Z,36.13
2019-03-22T09:49:09.262Z,38.20
2019-03-22T09:51:40.095Z,37.77
2019-03-22T09:54:11.324Z,37.70
2019-03-22T09:56:47.222Z,36.73
2019-03-22T09:59:16.358Z,39.27
2019-03-22T10:01:47.568Z,37.10
2019-03-22T10:04:20.183Z,37.43
2019-03-22T10:06:51.081Z,38.60
2019-03-22T10:09:22.010Z,38.10
2019-03-22T10:11:55.753Z,36.53
2019-03-22T10:14:26.613Z,36.73
2019-03-22T10:16:57.493Z,33.50
2019-03-22T10:19:29.550Z,36.87
2019-03-22T10:22:00.466Z,35.43
2019-03-22T10:24:31.248Z,35.77
2019-03-22T10:27:05.197Z,36.17
2019-03-22T10:29:36.381Z,34.33
2019-03-22T10:32:07.212Z,34.77
2019-03-22T10:34:39.744Z,37.83
2019-03-22T10:37:10.781Z,35.17
2019-03-22T10:39:42.771Z,35.70
2019-03-22T10:42:13.678Z,37.53
2019-03-22T10:44:49.801Z,36.37
2019-03-22T10:47:21.354Z,36.20
2019-03-22T10:49:52.462Z,37.00
2019-03-22T10:52:23.298Z,34.97
2019-03-22T10:54:54.245Z,35.83
2019-03-22T10:57:25.017Z,36.37
2019-03-22T10:59:57.497Z,36.03
2019-03-22T11:02:28.826Z,35.23
2019-03-22T11:04:59.879Z,36.03
2019-03-22T11:07:32.031Z,35.23
2019-03-22T11:10:02.991Z,33.57
2019-03-22T11:12:33.768Z,33.33
2019-03-22T11:15:05.002Z,34.83
2019-03-22T11:17:35.923Z,33.23
2019-03-22T11:20:09.375Z,33.97
2019-03-22T11:22:40.354Z,33.67
2019-03-22T11:25:11.459Z,33.60
2019-03-22T11:27:42.362Z,34.10
2019-03-22T11:30:15.399Z,32.60
2019-03-22T11:32:46.229Z,31.73
2019-03-22T11:35:17.114Z,32.10
2019-03-22T11:37:47.937Z,31.53
2019-03-22T11:40:20.868Z,31.60
2019-03-22T11:42:53.861Z,31.47
2019-03-22T11:45:25.519Z,31.63
2019-03-22T11:47:56.287Z,30.67
2019-03-22T11:50:29.029Z,29.17
2019-03-22T11:53:01.054Z,27.27
2019-03-22T11:55:31.898Z,24.67
2019-03-22T11:58:04.509Z,25.43
2019-03-22T12:00:35.390Z,27.00
2019-03-22T12:03:07.031Z,26.03
2019-03-22T12:05:40.648Z,24.53
2019-03-22T12:08:13.941Z,27.50
2019-03-22T12:10:46.255Z,26.87
2019-03-22T12:13:17.038Z,25.67
2019-03-22T12:15:47.948Z,23.43
2019-03-22T12:18:19.754Z,21.33
2019-03-22T12:20:51.267Z,19.10
2019-03-22T12:23:22.147Z,18.73
2019-03-22T12:25:55.450Z,16.57
2019-03-22T12:28:26.265Z,19.17
2019-03-22T12:30:59.755Z,17.87
2019-03-22T12:33:30.530Z,13.23
2019-03-22T12:36:02.539Z,8.40
2019-03-22T12:38:33.402Z,9.03
2019-03-22T12:41:04.269Z,12.47
2019-03-22T12:43:36.041Z,8.40
2019-03-22T12:46:07.029Z,12.33
2019-03-22T12:48:37.836Z,15.33
2019-03-22T12:51:08.986Z,13.97
2019-03-22T12:53:39.812Z,13.67
2019-03-22T12:56:10.714Z,11.23
2019-03-22T12:58:41.547Z,9.47
2019-03-22T13:01:12.481Z,22.83
2019-03-22T13:03:43.343Z,20.40
2019-03-22T13:06:21.764Z,18.47
2019-03-22T13:08:53.000Z,19.17
2019-03-22T13:11:23.894Z,18.00
2019-03-22T13:13:55.834Z,19.40
2019-03-22T13:16:28.059Z,18.17
2019-03-22T13:19:00.035Z,15.77
2019-03-22T13:21:30.994Z,16.57
2019-03-22T13:24:02.748Z,18.70
2019-03-22T13:26:34.924Z,19.17
2019-03-22T13:29:05.744Z,19.10
2019-03-22T13:31:36.802Z,20.17
2019-03-22T13:34:11.656Z,18.93
2019-03-22T13:36:42.909Z,19.67
2019-03-22T13:39:14.140Z,15.77
2019-03-22T13:41:44.933Z,17.60
2019-03-22T13:44:15.763Z,17.97
2019-03-22T13:46:49.999Z,13.57
2019-03-22T13:49:21.259Z,13.03
2019-03-22T13:51:53.320Z,13.13
2019-03-22T13:54:24.239Z,11.77
2019-03-22T13:56:55.388Z,14.07
2019-03-22T13:59:26.225Z,14.50
2019-03-22T14:01:57.431Z,13.20
2019-03-22T14:04:29.766Z,14.90
2019-03-22T14:07:00.606Z,14.33
2019-03-22T14:09:32.387Z,13.10
2019-03-22T14:12:03.185Z,11.30
2019-03-22T14:14:36.107Z,13.23
2019-03-22T14:17:06.974Z,12.77
2019-03-22T14:19:39.765Z,11.57
2019-03-22T14:22:11.457Z,14.07
2019-03-22T14:24:42.248Z,17.07
2019-03-22T14:27:13.103Z,17.03
2019-03-22T14:29:43.937Z,17.53
2019-03-22T14:32:14.776Z,23.37
2019-03-22T14:34:45.530Z,20.27
2019-03-22T14:37:16.599Z,22.57
2019-03-22T14:39:47.378Z,23.87
2019-03-22T14:42:18.221Z,24.83
2019-03-22T14:44:48.982Z,23.80
2019-03-22T14:47:19.841Z,24.07
2019-03-22T14:49:50.739Z,22.33
2019-03-22T14:52:21.567Z,24.80
2019-03-22T14:54:53.473Z,25.73
2019-03-22T14:57:24.585Z,20.07
2019-03-22T14:59:59.162Z,20.23
2019-03-22T15:02:30.135Z,23.80
2019-03-22T15:05:01.128Z,26.30
2019-03-22T15:07:32.083Z,25.53
2019-03-22T15:10:05.128Z,23.73
2019-03-22T15:12:36.086Z,27.57
2019-03-22T15:15:26.788Z,23.90
2019-03-22T15:18:25.877Z,25.73
2019-03-22T15:21:22.760Z,23.43
2019-03-22T15:24:12.647Z,20.80
2019-03-22T15:27:00.335Z,22.23
2019-03-22T15:30:10.873Z,25.13
2019-03-22T15:32:59.698Z,21.27
2019-03-22T15:35:52.270Z,20.43
2019-03-22T15:38:43.339Z,18.70
2019-03-22T15:41:14.879Z,17.97
2019-03-22T15:43:46.764Z,18.20
2019-03-22T15:46:17.675Z,20.53
2019-03-22T15:48:48.456Z,18.03
2019-03-22T15:51:19.256Z,18.97
2019-03-22T15:53:50.054Z,18.13
2019-03-22T15:56:20.953Z,17.87
2019-03-22T15:58:51.688Z,19.50
2019-03-22T16:01:22.527Z,18.87
2019-03-22T16:03:54.328Z,21.03
2019-03-22T16:06:25.680Z,20.23
2019-03-22T16:08:56.538Z,20.03
2019-03-22T16:11:27.551Z,20.90
2019-03-22T16:13:59.845Z,21.33
2019-03-22T16:16:30.702Z,22.37
2019-03-22T16:19:01.449Z,21.83
2019-03-22T16:21:34.589Z,21.67
2019-03-22T16:24:05.526Z,21.17
2019-03-22T16:26:36.512Z,21.30
2019-03-22T16:29:07.466Z,20.67
2019-03-22T16:31:38.279Z,21.00
2019-03-22T16:34:09.176Z,19.17
2019-03-22T16:36:39.942Z,21.17
2019-03-22T16:39:10.750Z,19.23
2019-03-22T16:41:41.782Z,20.33
2019-03-22T16:44:12.699Z,21.07
2019-03-22T16:46:43.500Z,19.10
2019-03-22T16:49:14.309Z,21.03
2019-03-22T16:51:45.167Z,19.67
2019-03-22T16:54:15.967Z,20.03
2019-03-22T16:56:47.039Z,18.30
2019-03-22T16:59:17.799Z,18.53
2019-03-22T17:01:54.124Z,19.97
2019-03-22T17:07:33.305Z,19.63
2019-03-22T17:10:09.736Z,20.80
2019-03-22T17:13:12.973Z,20.73
2019-03-22T17:15:49.015Z,20.87
2019-03-22T17:18:20.465Z,19.80
2019-03-22T17:20:51.347Z,19.83
2019-03-22T17:23:22.258Z,19.87
2019-03-22T17:25:53.095Z,20.87
2019-03-22T17:28:24.032Z,19.33
2019-03-22T17:30:54.832Z,20.03
2019-03-22T17:33:43.275Z,20.80
2019-03-22T17:36:36.398Z,18.83
2019-03-22T17:39:17.364Z,20.57
2019-03-22T17:41:57.124Z,19.23
2019-03-22T17:44:27.995Z,21.23
2019-03-22T17:46:58.792Z,19.93
2019-03-22T17:49:30.741Z,20.97
2019-03-22T17:52:01.570Z,21.10
2019-03-22T17:54:32.444Z,20.50
2019-03-22T17:57:18.181Z,21.30
2019-03-22T17:59:55.829Z,21.40
2019-03-22T18:03:00.063Z,23.47
2019-03-22T18:05:35.481Z,22.03
2019-03-22T18:08:21.761Z,23.07
2019-03-22T18:10:53.774Z,22.67
2019-03-22T18:13:24.590Z,23.73
2019-03-22T18:15:55.561Z,23.77
2019-03-22T18:18:26.475Z,24.13
2019-03-22T18:21:16.235Z,23.00
2019-03-22T18:23:57.239Z,25.27
2019-03-22T18:29:13.909Z,25.23
2019-03-22T18:31:51.339Z,26.47
2019-03-22T18:34:35.048Z,26.30
2019-03-22T18:37:18.609Z,26.87
2019-03-22T18:39:49.424Z,28.07
2019-03-22T18:42:20.166Z,26.67
2019-03-22T18:44:50.975Z,28.97
2019-03-22T18:47:21.889Z,28.03
2019-03-22T18:49:52.644Z,27.20
2019-03-22T18:52:25.796Z,26.90
2019-03-22T18:55:18.115Z,26.30
2019-03-22T18:57:54.260Z,27.00
2019-03-22T19:00:30.351Z,28.87
2019-03-22T19:03:04.298Z,26.73
2019-03-22T19:05:38.852Z,27.43
2019-03-22T19:08:14.083Z,28.17
2019-03-22T19:10:45.120Z,26.47
2019-03-22T19:13:30.425Z,26.60
2019-03-22T19:15:59.559Z,29.73
2019-03-22T19:18:32.856Z,28.20
2019-03-22T19:21:24.834Z,29.63
2019-03-22T19:24:03.500Z,30.20
2019-03-22T19:26:42.365Z,30.70
2019-03-22T19:29:30.436Z,29.30
2019-03-22T19:32:01.405Z,27.07
2019-03-22T19:34:54.338Z,30.50
2019-03-22T19:37:24.628Z,28.87
2019-03-22T19:39:55.394Z,30.33
2019-03-22T19:42:26.216Z,29.87
2019-03-22T19:44:57.028Z,29.47
2019-03-22T19:47:27.863Z,29.67
2019-03-22T19:50:00.424Z,29.87
2019-03-22T19:52:36.275Z,28.73
2019-03-22T19:55:07.973Z,28.90
2019-03-22T19:57:40.139Z,30.07
2019-03-22T20:00:11.874Z,30.10
2019-03-22T20:02:43.262Z,30.70
2019-03-22T20:05:18.229Z,30.10
2019-03-22T20:07:51.071Z,32.47
2019-03-22T20:10:49.398Z,32.63
2019-03-22T20:13:22.180Z,31.73
2019-03-22T20:16:05.319Z,31.83
2019-03-22T20:18:36.729Z,31.83
2019-03-22T20:21:09.786Z,32.10
2019-03-22T20:23:40.905Z,34.10
2019-03-22T20:26:25.531Z,33.27
2019-03-22T20:29:21.994Z,34.97
2019-03-22T20:31:49.375Z,35.23
2019-03-22T20:34:20.540Z,34.33
2019-03-22T20:36:51.374Z,35.90
2019-03-22T20:39:22.396Z,35.63
2019-03-22T20:41:54.643Z,35.53
2019-03-22T20:44:33.548Z,36.50
2019-03-22T20:46:57.960Z,36.33
2019-03-22T20:49:28.814Z,36.43
2019-03-22T20:51:59.621Z,37.40
2019-03-22T20:54:30.452Z,37.43
2019-03-22T20:57:01.476Z,37.93
2019-03-22T20:59:32.622Z,37.17
2019-03-22T21:02:03.499Z,38.37
2019-03-22T21:04:34.386Z,37.60
2019-03-22T21:07:05.359Z,34.87
2019-03-22T21:09:36.360Z,37.30
2019-03-22T21:12:09.588Z,39.40
2019-03-22T21:14:40.383Z,37.33
2019-03-22T21:17:11.183Z,36.67
2019-03-22T21:19:42.028Z,36.57
2019-03-22T21:22:12.860Z,38.03
2019-03-22T21:24:43.640Z,37.77
2019-03-22T21:27:15.752Z,37.13
2019-03-22T21:29:47.175Z,38.13
2019-03-22T21:32:19.228Z,38.27
2019-03-22T21:34:50.048Z,39.70
2019-03-22T21:37:22.165Z,36.73
2019-03-22T21:39:53.049Z,38.40
2019-03-22T21:42:24.960Z,38.43
2019-03-22T21:44:55.754Z,40.07
2019-03-22T21:47:27.151Z,41.10
2019-03-22T21:50:00.708Z,40.70
2019-03-22T21:52:31.612Z,38.07
2019-03-22T21:55:02.399Z,41.87
2019-03-22T21:57:33.225Z,42.73
2019-03-22T22:00:04.198Z,39.33
2019-03-22T22:02:36.561Z,38.27
2019-03-22T22:05:09.219Z,38.90
2019-03-22T22:07:40.446Z,43.87
2019-03-22T22:10:11.822Z,42.90
2019-03-22T22:12:43.039Z,43.73
2019-03-22T22:15:13.830Z,43.53
2019-03-22T22:17:47.214Z,42.67
2019-03-22T22:20:28.362Z,42.93
2019-03-22T22:22:51.992Z,44.30
2019-03-22T22:25:22.749Z,45.90
2019-03-22T22:27:53.548Z,47.67
2019-03-22T22:30:24.344Z,44.80
2019-03-22T22:32:56.243Z,49.03
2019-03-22T22:35:27.994Z,50.00
2019-03-22T22:37:58.817Z,48.13
2019-03-22T22:40:29.641Z,49.00
2019-03-22T22:43:00.420Z,46.53
2019-03-22T22:45:31.698Z,45.67
2019-03-22T22:48:02.558Z,42.83
2019-03-22T22:50:33.532Z,38.13
2019-03-22T22:53:04.302Z,38.93
2019-03-22T22:55:35.267Z,39.53
2019-03-22T22:58:06.392Z,35.80
2019-03-22T23:00:37.426Z,39.40
2019-03-22T23:03:08.348Z,33.03
2019-03-22T23:05:39.198Z,35.90
2019-03-22T23:08:12.484Z,36.60
2019-03-22T23:10:43.270Z,38.90
2019-03-22T23:13:14.309Z,36.77
2019-03-22T23:15:45.091Z,36.47
2019-03-22T23:18:15.854Z,34.90
2019-03-22T23:20:46.702Z,34.63
2019-03-22T23:23:17.720Z,32.93
2019-03-22T23:25:48.511Z,32.77
2019-03-22T23:28:19.273Z,31.50
2019-03-22T23:30:50.221Z,31.00
2019-03-22T23:33:21.039Z,33.30
2019-03-22T23:35:51.832Z,30.27
2019-03-22T23:38:22.822Z,31.90
2019-03-22T23:40:53.644Z,33.57
2019-03-22T23:43:24.476Z,33.17
2019-03-22T23:45:55.285Z,33.60
2019-03-22T23:48:26.085Z,36.37
2019-03-22T23:50:56.913Z,34.73
2019-03-22T23:53:28.120Z,36.07
2019-03-22T23:56:00.348Z,36.37
2019-03-22T23:58:32.252Z,36.33
